sensor_id;sensor_type;location;lat;lon;timestamp;pressure;altitude;pressure_sealevel;temperature;humidity
12247;BME280;6186;52.022;4.692;2023-02-02T00:01:46;102242.00;;;9.35;100.00
12247;BME280;6186;52.022;4.692;2023-02-02T00:06:46;102253.38;;;9.36;100.00
12247;BME280;6186;52.022;4.692;2023-02-02T00:09:15;102254.25;;;9.35;100.00
12247;BME280;6186;52.022;4.692;2023-02-02T00:11:42;102259.50;;;9.35;100.00
12247;BME280;6186;52.022;4.692;2023-02-02T00:14:08;102246.41;;;9.36;100.00
12247;BME280;6186;52.022;4.692;2023-02-02T00:19:06;102240.22;;;9.31;100.00
12247;BME280;6186;52.022;4.692;2023-02-02T00:21:31;102254.28;;;9.38;100.00
12247;BME280;6186;52.022;4.692;2023-02-02T00:23:57;102258.66;;;9.37;100.00
12247;BME280;6186;52.022;4.692;2023-02-02T00:26:22;102256.00;;;9.39;100.00
12247;BME280;6186;52.022;4.692;2023-02-02T00:28:48;102260.41;;;9.38;100.00
12247;BME280;6186;52.022;4.692;2023-02-02T00:31:13;102264.78;;;9.38;100.00
12247;BME280;6186;52.022;4.692;2023-02-02T00:33:39;102259.53;;;9.38;100.00
12247;BME280;6186;52.022;4.692;2023-02-02T00:36:04;102259.53;;;9.38;100.00
12247;BME280;6186;52.022;4.692;2023-02-02T00:38:30;102264.78;;;9.38;100.00
12247;BME280;6186;52.022;4.692;2023-02-02T00:40:56;102254.28;;;9.38;100.00
12247;BME280;6186;52.022;4.692;2023-02-02T00:43:22;102260.41;;;9.38;100.00
12247;BME280;6186;52.022;4.692;2023-02-02T00:45:47;102258.66;;;9.37;100.00
12247;BME280;6186;52.022;4.692;2023-02-02T00:48:13;102263.91;;;9.37;100.00
12247;BME280;6186;52.022;4.692;2023-02-02T00:50:39;102256.88;;;9.33;100.00
12247;BME280;6186;52.022;4.692;2023-02-02T00:53:04;102264.78;;;9.38;100.00
12247;BME280;6186;52.022;4.692;2023-02-02T00:55:29;102267.41;;;9.38;100.00
12247;BME280;6186;52.022;4.692;2023-02-02T00:57:55;102275.28;;;9.38;100.00
12247;BME280;6186;52.022;4.692;2023-02-02T01:00:23;102268.31;;;9.38;100.00
12247;BME280;6186;52.022;4.692;2023-02-02T01:02:50;102257.75;;;9.37;100.00
12247;BME280;6186;52.022;4.692;2023-02-02T01:05:16;102258.63;;;9.39;100.00
12247;BME280;6186;52.022;4.692;2023-02-02T01:07:42;102252.50;;;9.37;100.00
12247;BME280;6186;52.022;4.692;2023-02-02T01:10:10;102256.03;;;9.33;100.00
12247;BME280;6186;52.022;4.692;2023-02-02T01:12:36;102267.41;;;9.39;100.00
12247;BME280;6186;52.022;4.692;2023-02-02T01:15:02;102266.53;;;9.39;100.00
12247;BME280;6186;52.022;4.692;2023-02-02T01:17:28;102257.78;;;9.38;100.00
12247;BME280;6186;52.022;4.692;2023-02-02T01:19:53;102262.16;;;9.38;100.00
12247;BME280;6186;52.022;4.692;2023-02-02T01:22:19;102263.00;;;9.37;100.00
12247;BME280;6186;52.022;4.692;2023-02-02T01:24:44;102270.03;;;9.36;100.00
12247;BME280;6186;52.022;4.692;2023-02-02T01:27:09;102263.91;;;9.36;100.00
12247;BME280;6186;52.022;4.692;2023-02-02T01:29:35;102259.50;;;9.35;100.00
12247;BME280;6186;52.022;4.692;2023-02-02T01:32:00;102261.28;;;9.36;100.00
12247;BME280;6186;52.022;4.692;2023-02-02T01:34:25;102252.50;;;9.31;100.00
12247;BME280;6186;52.022;4.692;2023-02-02T01:36:51;102258.66;;;9.34;100.00
12247;BME280;6186;52.022;4.692;2023-02-02T01:39:16;102249.00;;;9.32;100.00
12247;BME280;6186;52.022;4.692;2023-02-02T01:41:41;102253.41;;;9.34;100.00
12247;BME280;6186;52.022;4.692;2023-02-02T01:47:10;102275.28;;;9.33;100.00
12247;BME280;6186;52.022;4.692;2023-02-02T01:49:36;102277.03;;;9.33;100.00
12247;BME280;6186;52.022;4.692;2023-02-02T01:52:02;102263.88;;;9.28;100.00
12247;BME280;6186;52.022;4.692;2023-02-02T01:54:33;102282.31;;;9.33;100.00
12247;BME280;6186;52.022;4.692;2023-02-02T01:57:03;102278.78;;;9.32;100.00
12247;BME280;6186;52.022;4.692;2023-02-02T01:59:30;102284.91;;;9.31;100.00
12247;BME280;6186;52.022;4.692;2023-02-02T02:01:57;102279.66;;;9.31;100.00
12247;BME280;6186;52.022;4.692;2023-02-02T02:04:25;102274.38;;;9.30;100.00
12247;BME280;6186;52.022;4.692;2023-02-02T02:06:51;102272.66;;;9.32;100.00
12247;BME280;6186;52.022;4.692;2023-02-02T02:09:17;102278.78;;;9.32;100.00
12247;BME280;6186;52.022;4.692;2023-02-02T02:11:43;102272.66;;;9.32;100.00
12247;BME280;6186;52.022;4.692;2023-02-02T02:14:09;102273.53;;;9.32;100.00
12247;BME280;6186;52.022;4.692;2023-02-02T02:20:41;102277.03;;;9.34;100.00
12247;BME280;6186;52.022;4.692;2023-02-02T02:34:48;102263.91;;;9.36;100.00
12247;BME280;6186;52.022;4.692;2023-02-02T02:42:24;102252.50;;;9.35;100.00
12247;BME280;6186;52.022;4.692;2023-02-02T02:44:52;102279.66;;;9.37;100.00
12247;BME280;6186;52.022;4.692;2023-02-02T02:47:19;102279.66;;;9.37;100.00
12247;BME280;6186;52.022;4.692;2023-02-02T02:49:47;102281.44;;;9.38;100.00
12247;BME280;6186;52.022;4.692;2023-02-02T02:52:13;102267.41;;;9.38;100.00
12247;BME280;6186;52.022;4.692;2023-02-02T02:54:46;102250.75;;;9.34;100.00
12247;BME280;6186;52.022;4.692;2023-02-02T03:10:34;102255.16;;;9.38;100.00
12247;BME280;6186;52.022;4.692;2023-02-02T03:13:00;102244.63;;;9.37;100.00
12247;BME280;6186;52.022;4.692;2023-02-02T03:15:30;102268.31;;;9.38;100.00
12247;BME280;6186;52.022;4.692;2023-02-02T03:17:55;102280.56;;;9.38;100.00
12247;BME280;6186;52.022;4.692;2023-02-02T03:20:21;102275.28;;;9.38;100.00
12247;BME280;6186;52.022;4.692;2023-02-02T03:22:46;102277.91;;;9.39;100.00
12247;BME280;6186;52.022;4.692;2023-02-02T03:25:11;102283.19;;;9.39;100.00
12247;BME280;6186;52.022;4.692;2023-02-02T03:27:37;102279.66;;;9.39;100.00
12247;BME280;6186;52.022;4.692;2023-02-02T03:30:05;102273.56;;;9.40;100.00
12247;BME280;6186;52.022;4.692;2023-02-02T03:32:32;102283.19;;;9.38;100.00
12247;BME280;6186;52.022;4.692;2023-02-02T03:34:57;102297.22;;;9.38;100.00
12247;BME280;6186;52.022;4.692;2023-02-02T03:37:22;102285.81;;;9.36;100.00
12247;BME280;6186;52.022;4.692;2023-02-02T03:39:48;102291.06;;;9.38;100.00
12247;BME280;6186;52.022;4.692;2023-02-02T03:42:13;102282.28;;;9.37;100.00
12247;BME280;6186;52.022;4.692;2023-02-02T03:44:38;102287.53;;;9.39;100.00
12247;BME280;6186;52.022;4.692;2023-02-02T03:47:04;102293.69;;;9.38;100.00
12247;BME280;6186;52.022;4.692;2023-02-02T03:49:29;102298.09;;;9.40;100.00
12247;BME280;6186;52.022;4.692;2023-02-02T03:51:54;102295.44;;;9.39;100.00
12247;BME280;6186;52.022;4.692;2023-02-02T03:54:20;102293.69;;;9.39;100.00
12247;BME280;6186;52.022;4.692;2023-02-02T03:56:45;102297.22;;;9.38;100.00
12247;BME280;6186;52.022;4.692;2023-02-02T03:59:10;102309.47;;;9.39;100.00
12247;BME280;6186;52.022;4.692;2023-02-02T04:01:36;102304.22;;;9.38;100.00
12247;BME280;6186;52.022;4.692;2023-02-02T04:04:01;102314.72;;;9.39;100.00
12247;BME280;6186;52.022;4.692;2023-02-02T04:06:26;102305.09;;;9.38;100.00
12247;BME280;6186;52.022;4.692;2023-02-02T04:08:52;102299.84;;;9.41;100.00
12247;BME280;6186;52.022;4.692;2023-02-02T04:11:18;102293.69;;;9.39;100.00
12247;BME280;6186;52.022;4.692;2023-02-02T04:13:44;102294.56;;;9.40;100.00
12247;BME280;6186;52.022;4.692;2023-02-02T04:16:11;102291.91;;;9.37;100.00
12247;BME280;6186;52.022;4.692;2023-02-02T04:18:37;102288.44;;;9.39;100.00
12247;BME280;6186;52.022;4.692;2023-02-02T04:21:03;102286.69;;;9.38;100.00
12247;BME280;6186;52.022;4.692;2023-02-02T04:23:29;102288.44;;;9.39;100.00
12247;BME280;6186;52.022;4.692;2023-02-02T04:25:55;102292.81;;;9.39;100.00
12247;BME280;6186;52.022;4.692;2023-02-02T04:28:20;102270.88;;;9.26;100.00
12247;BME280;6186;52.022;4.692;2023-02-02T04:30:46;102274.41;;;9.37;100.00
12247;BME280;6186;52.022;4.692;2023-02-02T04:33:12;102291.06;;;9.36;100.00
12247;BME280;6186;52.022;4.692;2023-02-02T04:35:37;102290.22;;;9.40;100.00
12247;BME280;6186;52.022;4.692;2023-02-02T04:38:02;102290.19;;;9.36;100.00
12247;BME280;6186;52.022;4.692;2023-02-02T04:40:28;102303.31;;;9.36;100.00
12247;BME280;6186;52.022;4.692;2023-02-02T04:42:53;102307.72;;;9.40;100.00
12247;BME280;6186;52.022;4.692;2023-02-02T04:45:21;102310.34;;;9.38;100.00
12247;BME280;6186;52.022;4.692;2023-02-02T04:47:46;102292.81;;;9.39;100.00
12247;BME280;6186;52.022;4.692;2023-02-02T04:50:12;102297.22;;;9.40;100.00
12247;BME280;6186;52.022;4.692;2023-02-02T04:52:37;102304.19;;;9.39;100.00
12247;BME280;6186;52.022;4.692;2023-02-02T04:55:03;102303.34;;;9.40;100.00
12247;BME280;6186;52.022;4.692;2023-02-02T04:57:28;102315.59;;;9.40;100.00
12247;BME280;6186;52.022;4.692;2023-02-02T04:59:53;102320.84;;;9.41;100.00
12247;BME280;6186;52.022;4.692;2023-02-02T05:02:18;102318.22;;;9.41;100.00
12247;BME280;6186;52.022;4.692;2023-02-02T05:04:45;102316.47;;;9.43;100.00
12247;BME280;6186;52.022;4.692;2023-02-02T05:07:10;102314.72;;;9.42;100.00
12247;BME280;6186;52.022;4.692;2023-02-02T05:09:36;102314.72;;;9.42;100.00
12247;BME280;6186;52.022;4.692;2023-02-02T05:12:01;102311.22;;;9.42;100.00
12247;BME280;6186;52.022;4.692;2023-02-02T05:14:27;102310.34;;;9.40;100.00
12247;BME280;6186;52.022;4.692;2023-02-02T05:16:52;102315.59;;;9.41;100.00
12247;BME280;6186;52.022;4.692;2023-02-02T05:19:18;102319.13;;;9.40;100.00
12247;BME280;6186;52.022;4.692;2023-02-02T05:21:46;102313.88;;;9.40;100.00
12247;BME280;6186;52.022;4.692;2023-02-02T05:24:14;102313.88;;;9.40;100.00
12247;BME280;6186;52.022;4.692;2023-02-02T05:26:39;102306.84;;;9.36;100.00
12247;BME280;6186;52.022;4.692;2023-02-02T05:29:05;102309.47;;;9.41;100.00
12247;BME280;6186;52.022;4.692;2023-02-02T05:31:32;102314.72;;;9.41;100.00
12247;BME280;6186;52.022;4.692;2023-02-02T05:34:00;102308.56;;;9.39;100.00
12247;BME280;6186;52.022;4.692;2023-02-02T05:36:29;102319.97;;;9.39;100.00
12247;BME280;6186;52.022;4.692;2023-02-02T05:38:57;102315.59;;;9.38;100.00
12247;BME280;6186;52.022;4.692;2023-02-02T05:41:22;102315.59;;;9.40;100.00
12247;BME280;6186;52.022;4.692;2023-02-02T05:43:48;102315.59;;;9.40;100.00
12247;BME280;6186;52.022;4.692;2023-02-02T05:46:13;102320.84;;;9.40;100.00
12247;BME280;6186;52.022;4.692;2023-02-02T05:48:39;102316.50;;;9.40;100.00
12247;BME280;6186;52.022;4.692;2023-02-02T05:51:10;102324.38;;;9.40;100.00
12247;BME280;6186;52.022;4.692;2023-02-02T05:53:36;102314.72;;;9.39;100.00
12247;BME280;6186;52.022;4.692;2023-02-02T05:56:01;102315.59;;;9.38;100.00
12247;BME280;6186;52.022;4.692;2023-02-02T05:58:27;102323.50;;;9.40;100.00
12247;BME280;6186;52.022;4.692;2023-02-02T06:00:53;102314.72;;;9.39;100.00
12247;BME280;6186;52.022;4.692;2023-02-02T06:03:18;102320.84;;;9.38;100.00
12247;BME280;6186;52.022;4.692;2023-02-02T06:05:43;102326.97;;;9.37;100.00
12247;BME280;6186;52.022;4.692;2023-02-02T06:08:09;102322.56;;;9.32;100.00
12247;BME280;6186;52.022;4.692;2023-02-02T06:10:37;102335.75;;;9.38;100.00
12247;BME280;6186;52.022;4.692;2023-02-02T06:13:03;102326.09;;;9.37;100.00
12247;BME280;6186;52.022;4.692;2023-02-02T06:15:28;102336.59;;;9.37;100.00
12247;BME280;6186;52.022;4.692;2023-02-02T06:17:53;102333.13;;;9.38;100.00
12247;BME280;6186;52.022;4.692;2023-02-02T06:20:19;102336.63;;;9.38;100.00
12247;BME280;6186;52.022;4.692;2023-02-02T06:22:44;102342.75;;;9.37;100.00
12247;BME280;6186;52.022;4.692;2023-02-02T06:25:09;102345.38;;;9.39;100.00
12247;BME280;6186;52.022;4.692;2023-02-02T06:27:35;102347.13;;;9.38;100.00
12247;BME280;6186;52.022;4.692;2023-02-02T06:30:00;102336.59;;;9.34;100.00
12247;BME280;6186;52.022;4.692;2023-02-02T06:32:28;102350.63;;;9.36;100.00
12247;BME280;6186;52.022;4.692;2023-02-02T06:34:54;102345.38;;;9.37;100.00
12247;BME280;6186;52.022;4.692;2023-02-02T06:37:19;102369.91;;;9.38;100.00
12247;BME280;6186;52.022;4.692;2023-02-02T06:39:45;102377.78;;;9.38;100.00
12247;BME280;6186;52.022;4.692;2023-02-02T06:42:10;102371.66;;;9.39;100.00
12247;BME280;6186;52.022;4.692;2023-02-02T06:44:35;102388.31;;;9.39;100.00
12247;BME280;6186;52.022;4.692;2023-02-02T06:47:01;102390.03;;;9.39;100.00
12247;BME280;6186;52.022;4.692;2023-02-02T06:49:26;102379.53;;;9.39;100.00
12247;BME280;6186;52.022;4.692;2023-02-02T06:51:51;102374.28;;;9.37;100.00
12247;BME280;6186;52.022;4.692;2023-02-02T06:54:17;102369.03;;;9.34;100.00
12247;BME280;6186;52.022;4.692;2023-02-02T06:56:42;102376.91;;;9.33;100.00
12247;BME280;6186;52.022;4.692;2023-02-02T06:59:08;102365.47;;;9.29;100.00
12247;BME280;6186;52.022;4.692;2023-02-02T07:01:33;102370.72;;;9.28;100.00
12247;BME280;6186;52.022;4.692;2023-02-02T07:03:58;102368.09;;;9.26;100.00
12247;BME280;6186;52.022;4.692;2023-02-02T07:06:26;102373.34;;;9.25;100.00
12247;BME280;6186;52.022;4.692;2023-02-02T07:08:52;102375.09;;;9.24;100.00
12247;BME280;6186;52.022;4.692;2023-02-02T07:11:18;102377.72;;;9.21;100.00
12247;BME280;6186;52.022;4.692;2023-02-02T07:13:45;102373.31;;;9.20;100.00
12247;BME280;6186;52.022;4.692;2023-02-02T07:16:11;102391.72;;;9.22;100.00
12247;BME280;6186;52.022;4.692;2023-02-02T07:18:37;102383.81;;;9.22;100.00
12247;BME280;6186;52.022;4.692;2023-02-02T07:21:04;102390.81;;;9.20;100.00
12247;BME280;6186;52.022;4.692;2023-02-02T07:23:31;102385.59;;;9.23;100.00
12247;BME280;6186;52.022;4.692;2023-02-02T07:26:07;102386.44;;;9.17;100.00
12247;BME280;6186;52.022;4.692;2023-02-02T07:28:33;102390.84;;;9.23;100.00
12247;BME280;6186;52.022;4.692;2023-02-02T07:31:32;102400.47;;;9.22;100.00
12247;BME280;6186;52.022;4.692;2023-02-02T07:33:51;102400.47;;;9.21;100.00
12247;BME280;6186;52.022;4.692;2023-02-02T07:36:19;102406.59;;;9.20;100.00
12247;BME280;6186;52.022;4.692;2023-02-02T07:38:46;102411.84;;;9.18;100.00
12247;BME280;6186;52.022;4.692;2023-02-02T07:41:13;102402.22;;;9.17;100.00
12247;BME280;6186;52.022;4.692;2023-02-02T07:43:39;102410.94;;;9.18;100.00
12247;BME280;6186;52.022;4.692;2023-02-02T07:46:06;102425.84;;;9.17;100.00
12247;BME280;6186;52.022;4.692;2023-02-02T07:48:34;102423.22;;;9.17;100.00
12247;BME280;6186;52.022;4.692;2023-02-02T07:51:01;102431.13;;;9.17;100.00
12247;BME280;6186;52.022;4.692;2023-02-02T07:53:27;102431.97;;;9.16;100.00
12247;BME280;6186;52.022;4.692;2023-02-02T07:55:58;102412.69;;;9.11;100.00
12247;BME280;6186;52.022;4.692;2023-02-02T07:58:28;102431.97;;;9.16;100.00
12247;BME280;6186;52.022;4.692;2023-02-02T08:00:53;102428.47;;;9.17;100.00
12247;BME280;6186;52.022;4.692;2023-02-02T08:03:19;102427.59;;;9.17;100.00
12247;BME280;6186;52.022;4.692;2023-02-02T08:05:44;102439.00;;;9.17;100.00
12247;BME280;6186;52.022;4.692;2023-02-02T08:08:09;102439.84;;;9.18;100.00
12247;BME280;6186;52.022;4.692;2023-02-02T08:10:35;102439.84;;;9.18;100.00
12247;BME280;6186;52.022;4.692;2023-02-02T08:13:00;102433.75;;;9.17;100.00
12247;BME280;6186;52.022;4.692;2023-02-02T08:15:28;102443.38;;;9.18;100.00
12247;BME280;6186;52.022;4.692;2023-02-02T08:17:53;102433.75;;;9.20;100.00
12247;BME280;6186;52.022;4.692;2023-02-02T08:20:21;102439.88;;;9.19;100.00
12247;BME280;6186;52.022;4.692;2023-02-02T08:22:47;102442.50;;;9.21;100.00
12247;BME280;6186;52.022;4.692;2023-02-02T08:25:12;102439.88;;;9.21;100.00
12247;BME280;6186;52.022;4.692;2023-02-02T08:27:37;102453.03;;;9.22;100.00
12247;BME280;6186;52.022;4.692;2023-02-02T08:30:03;102452.13;;;9.22;100.00
12247;BME280;6186;52.022;4.692;2023-02-02T08:32:30;102460.06;;;9.23;100.00
12247;BME280;6186;52.022;4.692;2023-02-02T08:34:55;102451.28;;;9.24;100.00
12247;BME280;6186;52.022;4.692;2023-02-02T08:37:20;102453.91;;;9.26;100.00
12247;BME280;6186;52.022;4.692;2023-02-02T08:39:46;102461.81;;;9.27;100.00
12247;BME280;6186;52.022;4.692;2023-02-02T08:42:11;102461.81;;;9.27;100.00
12247;BME280;6186;52.022;4.692;2023-02-02T08:44:36;102464.47;;;9.30;100.00
12247;BME280;6186;52.022;4.692;2023-02-02T08:47:02;102465.34;;;9.32;100.00
12247;BME280;6186;52.022;4.692;2023-02-02T08:49:27;102482.91;;;9.36;100.00
12247;BME280;6186;52.022;4.692;2023-02-02T08:51:53;102483.81;;;9.40;100.00
12247;BME280;6186;52.022;4.692;2023-02-02T08:54:19;102483.81;;;9.44;100.00
12247;BME280;6186;52.022;4.692;2023-02-02T08:56:44;102488.22;;;9.44;100.00
12247;BME280;6186;52.022;4.692;2023-02-02T08:59:09;102481.19;;;9.41;100.00
12247;BME280;6186;52.022;4.692;2023-02-02T09:01:35;102485.59;;;9.47;100.00
12247;BME280;6186;52.022;4.692;2023-02-02T09:04:05;102467.16;;;9.42;100.00
12247;BME280;6186;52.022;4.692;2023-02-02T09:06:36;102484.72;;;9.49;100.00
12247;BME280;6186;52.022;4.692;2023-02-02T09:09:03;102486.47;;;9.50;100.00
12247;BME280;6186;52.022;4.692;2023-02-02T09:11:29;102491.72;;;9.47;100.00
12247;BME280;6186;52.022;4.692;2023-02-02T09:13:56;102507.50;;;9.50;100.00
12247;BME280;6186;52.022;4.692;2023-02-02T09:16:22;102505.75;;;9.51;100.00
12247;BME280;6186;52.022;4.692;2023-02-02T09:18:48;102495.25;;;9.51;100.00
12247;BME280;6186;52.022;4.692;2023-02-02T09:21:16;102481.19;;;9.41;100.00
12247;BME280;6186;52.022;4.692;2023-02-02T09:23:42;102504.91;;;9.54;100.00
12247;BME280;6186;52.022;4.692;2023-02-02T09:26:19;102516.28;;;9.52;100.00
12247;BME280;6186;52.022;4.692;2023-02-02T09:28:53;102512.75;;;9.50;100.00
12247;BME280;6186;52.022;4.692;2023-02-02T09:31:19;102523.28;;;9.49;100.00
12247;BME280;6186;52.022;4.692;2023-02-02T09:33:45;102519.75;;;9.48;100.00
12247;BME280;6186;52.022;4.692;2023-02-02T09:36:16;102510.13;;;9.46;100.00
12247;BME280;6186;52.022;4.692;2023-02-02T09:38:42;102518.03;;;9.52;100.00
12247;BME280;6186;52.022;4.692;2023-02-02T09:52:41;102503.22;;;9.68;100.00
12247;BME280;6186;52.022;4.692;2023-02-02T09:55:15;102514.66;;;9.79;100.00
12247;BME280;6186;52.022;4.692;2023-02-02T09:57:50;102496.28;;;9.86;100.00
12247;BME280;6186;52.022;4.692;2023-02-02T10:00:29;102503.31;;;9.92;100.00
12247;BME280;6186;52.022;4.692;2023-02-02T10:03:03;102499.88;;;10.00;100.00
12247;BME280;6186;52.022;4.692;2023-02-02T10:05:49;102506.91;;;10.09;100.00
12247;BME280;6186;52.022;4.692;2023-02-02T10:08:24;102505.22;;;10.15;100.00
12247;BME280;6186;52.022;4.692;2023-02-02T10:10:53;102523.63;;;10.15;100.00
12247;BME280;6186;52.022;4.692;2023-02-02T10:13:24;102534.16;;;10.14;100.00
12247;BME280;6186;52.022;4.692;2023-02-02T10:15:56;102535.91;;;10.12;100.00
12247;BME280;6186;52.022;4.692;2023-02-02T10:18:39;102542.03;;;10.11;100.00
12247;BME280;6186;52.022;4.692;2023-02-02T10:21:11;102532.38;;;10.10;100.00
12247;BME280;6186;52.022;4.692;2023-02-02T10:23:42;102539.34;;;10.06;100.00
12247;BME280;6186;52.022;4.692;2023-02-02T10:35:37;102553.44;;;10.10;100.00
12247;BME280;6186;52.022;4.692;2023-02-02T10:37:48;102558.69;;;10.13;100.00
12247;BME280;6186;52.022;4.692;2023-02-02T10:46:03;102564.00;;;10.19;100.00
12247;BME280;6186;52.022;4.692;2023-02-02T10:48:32;102563.97;;;10.13;100.00
12247;BME280;6186;52.022;4.692;2023-02-02T10:51:10;102558.72;;;10.16;100.00
12247;BME280;6186;52.022;4.692;2023-02-02T10:53:39;102562.25;;;10.21;100.00
12247;BME280;6186;52.022;4.692;2023-02-02T10:56:10;102560.50;;;10.21;100.00
12247;BME280;6186;52.022;4.692;2023-02-02T10:58:45;102557.88;;;10.23;100.00
12247;BME280;6186;52.022;4.692;2023-02-02T11:01:14;102556.09;;;10.22;100.00
12247;BME280;6186;52.022;4.692;2023-02-02T11:03:42;102555.25;;;10.21;100.00
12247;BME280;6186;52.022;4.692;2023-02-02T11:06:10;102558.72;;;10.22;100.00
12247;BME280;6186;52.022;4.692;2023-02-02T11:08:56;102554.34;;;10.24;100.00
12247;BME280;6186;52.022;4.692;2023-02-02T11:11:43;102556.13;;;10.26;100.00
12247;BME280;6186;52.022;4.692;2023-02-02T11:14:16;102558.75;;;10.28;100.00
12247;BME280;6186;52.022;4.692;2023-02-02T11:16:45;102553.50;;;10.28;100.00
12247;BME280;6186;52.022;4.692;2023-02-02T11:21:45;102574.56;;;10.28;100.00
12247;BME280;6186;52.022;4.692;2023-02-02T11:24:20;102562.28;;;10.27;100.00
12247;BME280;6186;52.022;4.692;2023-02-02T11:26:52;102566.66;;;10.28;100.00
12247;BME280;6186;52.022;4.692;2023-02-02T11:29:28;102562.28;;;10.27;100.00
12247;BME280;6186;52.022;4.692;2023-02-02T11:31:56;102550.88;;;10.23;100.00
12247;BME280;6186;52.022;4.692;2023-02-02T11:34:25;102565.78;;;10.27;100.00
12247;BME280;6186;52.022;4.692;2023-02-02T11:36:59;102557.88;;;10.23;100.00
12247;BME280;6186;52.022;4.692;2023-02-02T11:39:25;102556.97;;;10.24;100.00
12247;BME280;6186;52.022;4.692;2023-02-02T11:42:03;102559.63;;;10.24;100.00
12247;BME280;6186;52.022;4.692;2023-02-02T11:44:29;102561.38;;;10.25;100.00
12247;BME280;6186;52.022;4.692;2023-02-02T11:46:57;102549.97;;;10.24;100.00
12247;BME280;6186;52.022;4.692;2023-02-02T11:49:23;102564.03;;;10.25;100.00
12247;BME280;6186;52.022;4.692;2023-02-02T11:51:57;102556.97;;;10.24;100.00
12247;BME280;6186;52.022;4.692;2023-02-02T11:54:32;102555.25;;;10.20;100.00
12247;BME280;6186;52.022;4.692;2023-02-02T11:57:08;102562.25;;;10.22;100.00
12247;BME280;6186;52.022;4.692;2023-02-02T11:59:39;102556.97;;;10.19;100.00
12247;BME280;6186;52.022;4.692;2023-02-02T12:04:37;102559.59;;;10.13;100.00
12247;BME280;6186;52.022;4.692;2023-02-02T12:07:23;102556.06;;;10.11;100.00
12247;BME280;6186;52.022;4.692;2023-02-02T12:09:49;102542.91;;;10.13;100.00
12247;BME280;6186;52.022;4.692;2023-02-02T12:17:45;102549.94;;;10.14;100.00
12247;BME280;6186;52.022;4.692;2023-02-02T12:33:53;102553.34;;;9.93;100.00
12247;BME280;6186;52.022;4.692;2023-02-02T12:41:52;102557.72;;;9.93;100.00
12247;BME280;6186;52.022;4.692;2023-02-02T12:47:45;102543.63;;;9.86;100.00
12247;BME280;6186;52.022;4.692;2023-02-02T13:01:20;102545.34;;;9.77;100.00
12247;BME280;6186;52.022;4.692;2023-02-02T13:12:19;102530.44;;;9.73;100.00
12247;BME280;6186;52.022;4.692;2023-02-02T13:15:03;102533.91;;;9.72;100.00
12247;BME280;6186;52.022;4.692;2023-02-02T13:17:51;102528.66;;;9.72;100.00
12247;BME280;6186;52.022;4.692;2023-02-02T13:20:40;102532.16;;;9.68;100.00
12247;BME280;6186;52.022;4.692;2023-02-02T13:23:18;102532.09;;;9.62;100.00
12247;BME280;6186;52.022;4.692;2023-02-02T13:25:55;102540.88;;;9.62;100.00
12247;BME280;6186;52.022;4.692;2023-02-02T13:28:35;102527.72;;;9.59;100.00
12247;BME280;6186;52.022;4.692;2023-02-02T13:31:04;102534.72;;;9.56;100.00
12247;BME280;6186;52.022;4.692;2023-02-02T13:33:34;102532.94;;;9.56;100.00
12247;BME280;6186;52.022;4.692;2023-02-02T13:36:25;102532.94;;;9.58;100.00
12247;BME280;6186;52.022;4.692;2023-02-02T13:38:56;102528.53;;;9.50;100.00
12247;BME280;6186;52.022;4.692;2023-02-02T13:41:24;102538.19;;;9.55;100.00
12247;BME280;6186;52.022;4.692;2023-02-02T13:44:10;102538.19;;;9.55;100.00
12247;BME280;6186;52.022;4.692;2023-02-02T13:50:02;102546.94;;;9.52;100.00
12247;BME280;6186;52.022;4.692;2023-02-02T13:55:14;102553.06;;;9.49;100.00
12247;BME280;6186;52.022;4.692;2023-02-02T14:00:28;102544.31;;;9.47;100.00
12247;BME280;6186;52.022;4.692;2023-02-02T14:03:04;102542.56;;;9.48;100.00
12247;BME280;6186;52.022;4.692;2023-02-02T14:05:37;102543.41;;;9.48;100.00
12247;BME280;6186;52.022;4.692;2023-02-02T14:08:06;102546.94;;;9.49;100.00
12247;BME280;6186;52.022;4.692;2023-02-02T14:10:39;102543.41;;;9.48;100.00
12247;BME280;6186;52.022;4.692;2023-02-02T14:15:58;102535.47;;;9.42;100.00
12247;BME280;6186;52.022;4.692;2023-02-02T14:24:36;102555.66;;;9.42;100.00
12247;BME280;6186;52.022;4.692;2023-02-02T14:26:54;102556.50;;;9.39;100.00
12247;BME280;6186;52.022;4.692;2023-02-02T14:31:58;102567.91;;;9.40;100.00
12247;BME280;6186;52.022;4.692;2023-02-02T14:39:35;102559.97;;;9.37;100.00
12247;BME280;6186;52.022;4.692;2023-02-02T14:47:51;102578.44;;;9.43;100.00
12247;BME280;6186;52.022;4.692;2023-02-02T14:53:22;102580.22;;;9.44;100.00
12247;BME280;6186;52.022;4.692;2023-02-02T15:01:12;102585.41;;;9.42;100.00
12247;BME280;6186;52.022;4.692;2023-02-02T15:06:40;102587.19;;;9.45;100.00
12247;BME280;6186;52.022;4.692;2023-02-02T15:14:24;102581.09;;;9.50;100.00
12247;BME280;6186;52.022;4.692;2023-02-02T15:16:51;102561.75;;;9.39;100.00
12247;BME280;6186;52.022;4.692;2023-02-02T15:19:28;102587.25;;;9.52;100.00
12247;BME280;6186;52.022;4.692;2023-02-02T15:22:05;102580.25;;;9.52;100.00
12247;BME280;6186;52.022;4.692;2023-02-02T15:24:37;102585.53;;;9.55;100.00
12247;BME280;6186;52.022;4.692;2023-02-02T15:27:06;102579.41;;;9.56;100.00
12247;BME280;6186;52.022;4.692;2023-02-02T15:29:39;102582.88;;;9.52;100.00
12247;BME280;6186;52.022;4.692;2023-02-02T15:32:14;102582.91;;;9.56;100.00
12247;BME280;6186;52.022;4.692;2023-02-02T15:34:44;102569.75;;;9.53;100.00
12247;BME280;6186;52.022;4.692;2023-02-02T15:37:15;102583.78;;;9.57;100.00
12247;BME280;6186;52.022;4.692;2023-02-02T15:39:50;102575.91;;;9.57;100.00
12247;BME280;6186;52.022;4.692;2023-02-02T15:42:19;102584.69;;;9.59;100.00
12247;BME280;6186;52.022;4.692;2023-02-02T15:45:05;102586.41;;;9.60;100.00
12247;BME280;6186;52.022;4.692;2023-02-02T15:47:37;102582.94;;;9.61;100.00
12247;BME280;6186;52.022;4.692;2023-02-02T15:50:16;102587.31;;;9.60;100.00
12247;BME280;6186;52.022;4.692;2023-02-02T15:52:50;102590.78;;;9.58;100.00
12247;BME280;6186;52.022;4.692;2023-02-02T15:55:22;102601.34;;;9.61;100.00